This is the latest recevied weather packets stored in our database for station/object N7ZAP. If no packets are shown the sender has not sent any weather packets the latest 10 day(s).
| Time | Temp. | Humidity | Pressure | Rain* | Wind** | Luminosity | Snow |
|---|---|---|---|---|---|---|---|
| 1777631962 | 7.78° C | 75% | 1015.6 hPa | 0 mm | - | - | - |
| 1777631661 | 7.78° C | 77% | 1016 hPa | 0 mm | - | - | - |
| 1777631358 | 7.78° C | 77% | 1015.9 hPa | 0 mm | - | - | - |
| 1777631055 | 7.78° C | 77% | 1016 hPa | 0 mm | - | - | - |
| 1777630751 | 7.78° C | 79% | 1015.8 hPa | 0 mm | - | - | - |
| 1777630448 | 7.78° C | 79% | 1015.8 hPa | 0 mm | - | - | - |
| 1777630145 | 7.78° C | 78% | 1016 hPa | 0 mm | - | - | - |
| 1777629842 | 7.78° C | 79% | 1015.8 hPa | 0 mm | - | - | - |
| 1777629539 | 7.78° C | 80% | 1016.1 hPa | 0 mm | - | - | - |
| 1777629235 | 7.78° C | 80% | 1016 hPa | 0 mm | - | - | - |
| 1777628931 | 7.78° C | 80% | 1016 hPa | 0 mm | - | - | - |
| 1777628628 | 7.78° C | 80% | 1016.1 hPa | 1.27 mm | - | - | - |
| 1777628324 | 7.78° C | 81% | 1015.8 hPa | 1.27 mm | - | - | - |
| 1777628021 | 7.78° C | 80% | 1015.9 hPa | 1.78 mm | - | - | - |
| 1777627720 | 8.33° C | 80% | 1015.6 hPa | 3.05 mm | - | - | - |
| 1777627419 | 8.33° C | 79% | 1015.9 hPa | 3.05 mm | - | - | - |
| 1777627116 | 8.33° C | 78% | 1015.8 hPa | 1.78 mm | - | - | - |
| 1777626812 | 8.89° C | 79% | 1015.8 hPa | 1.27 mm | - | - | - |
| 1777626509 | 8.89° C | 78% | 1015.4 hPa | 3.05 mm | - | - | - |
| 1777626209 | 9.44° C | 77% | 1015.5 hPa | 9.65 mm | - | - | - |
| 1777625907 | 10.56° C | 75% | 1015.6 hPa | 7.87 mm | - | - | - |
| 1777625604 | 12.22° C | 63% | 1015.3 hPa | 0 mm | - | - | - |
| 1777625298 | 12.22° C | 56% | 1015.2 hPa | 0 mm | - | - | - |
| 1777624996 | 12.78° C | 57% | 1014.7 hPa | 0 mm | - | - | - |
| 1777624693 | 12.78° C | 57% | 1014.8 hPa | 0 mm | - | - | - |
* Rain latest hour (hover to see other rain measurements)
** Current wind speed in m/s (hover to see current wind gust speed)